createdAt,value
2023-04-20T00:00:53.860Z,10.03
2023-04-20T00:01:53.938Z,10.14
2023-04-20T00:02:54.167Z,10.07
2023-04-20T00:03:54.177Z,10.13
2023-04-20T00:04:54.009Z,10.28
2023-04-20T00:05:54.097Z,10.41
2023-04-20T00:06:54.114Z,10.39
2023-04-20T00:07:54.074Z,10.34
2023-04-20T00:08:54.117Z,10.40
2023-04-20T00:09:54.180Z,10.49
2023-04-20T00:10:54.158Z,10.43
2023-04-20T00:11:54.123Z,9.96
2023-04-20T00:12:54.157Z,9.76
2023-04-20T00:13:54.158Z,9.64
2023-04-20T00:14:54.137Z,9.81
2023-04-20T00:15:54.219Z,9.97
2023-04-20T00:16:54.387Z,10.17
2023-04-20T00:17:54.414Z,10.19
2023-04-20T00:18:54.409Z,9.89
2023-04-20T00:19:54.487Z,9.74
2023-04-20T00:20:54.533Z,9.93
2023-04-20T00:21:54.605Z,10.08
2023-04-20T00:22:54.962Z,10.24
2023-04-20T00:23:54.675Z,10.31
2023-04-20T00:24:54.722Z,10.26
2023-04-20T00:25:54.732Z,10.33
2023-04-20T00:26:54.773Z,10.41
2023-04-20T00:27:54.746Z,10.43
2023-04-20T00:28:54.768Z,10.40
2023-04-20T00:29:54.820Z,10.26
2023-04-20T00:30:54.863Z,10.26
2023-04-20T00:31:54.888Z,10.29
2023-04-20T00:32:54.927Z,10.38
2023-04-20T00:33:54.925Z,10.45
2023-04-20T00:34:54.950Z,10.45
2023-04-20T00:35:54.983Z,10.46
2023-04-20T00:36:54.978Z,10.49
2023-04-20T00:37:55.008Z,10.47
2023-04-20T00:38:55.016Z,10.45
2023-04-20T00:39:55.025Z,10.49
2023-04-20T00:40:55.104Z,10.57
2023-04-20T00:41:55.187Z,10.32
2023-04-20T00:42:55.207Z,9.98
2023-04-20T00:43:55.275Z,9.66
2023-04-20T00:44:55.341Z,9.45
2023-04-20T00:45:55.434Z,9.52
2023-04-20T00:46:55.365Z,9.52
2023-04-20T00:47:55.507Z,9.68
2023-04-20T00:48:55.482Z,9.83
2023-04-20T00:49:55.505Z,9.96
2023-04-20T00:50:55.589Z,10.00
2023-04-20T00:51:55.585Z,10.06
2023-04-20T00:52:55.625Z,9.85
2023-04-20T00:53:55.648Z,9.78
2023-04-20T00:54:55.726Z,9.62
2023-04-20T00:55:55.754Z,9.44
2023-04-20T00:56:55.754Z,9.36
2023-04-20T00:57:55.758Z,9.31
2023-04-20T00:58:55.814Z,9.33
2023-04-20T00:59:55.822Z,9.48
2023-04-20T01:00:55.789Z,9.39
2023-04-20T01:01:55.929Z,9.32
2023-04-20T01:02:55.987Z,9.46
2023-04-20T01:03:55.926Z,9.64
2023-04-20T01:04:55.879Z,9.63
2023-04-20T01:05:55.931Z,9.60
2023-04-20T01:06:55.946Z,9.63
2023-04-20T01:07:55.980Z,9.62
2023-04-20T01:08:55.994Z,9.67
2023-04-20T01:09:56.820Z,9.79
2023-04-20T01:10:56.051Z,9.84
2023-04-20T01:11:56.054Z,9.86
2023-04-20T01:12:56.076Z,9.96
2023-04-20T01:13:56.105Z,9.93
2023-04-20T01:14:56.076Z,9.99
2023-04-20T01:15:56.185Z,10.04
2023-04-20T01:16:56.135Z,10.06
2023-04-20T01:17:56.249Z,10.02
2023-04-20T01:18:56.200Z,9.97
2023-04-20T01:19:56.289Z,9.86
2023-04-20T01:20:56.334Z,9.87
2023-04-20T01:21:56.358Z,9.94
2023-04-20T01:22:56.398Z,9.88
2023-04-20T01:23:56.363Z,9.99
2023-04-20T01:24:56.385Z,9.99
2023-04-20T01:25:56.448Z,9.91
2023-04-20T01:26:56.561Z,9.83
2023-04-20T01:27:56.538Z,9.94
2023-04-20T01:28:56.507Z,9.75
2023-04-20T01:29:56.519Z,9.55
2023-04-20T01:30:56.600Z,9.49
2023-04-20T01:31:56.662Z,9.26
2023-04-20T01:32:56.783Z,9.23
2023-04-20T01:33:56.740Z,9.10
2023-04-20T01:34:56.861Z,8.93
2023-04-20T01:35:56.861Z,8.87
2023-04-20T01:36:56.889Z,8.85
2023-04-20T01:37:56.953Z,8.74
2023-04-20T01:38:57.017Z,8.68
2023-04-20T01:39:57.109Z,8.68
2023-04-20T01:40:57.176Z,8.77
2023-04-20T01:41:57.232Z,8.76
2023-04-20T01:42:57.265Z,8.83
2023-04-20T01:43:57.314Z,8.83
2023-04-20T01:44:57.422Z,8.97
2023-04-20T01:45:57.429Z,9.07
2023-04-20T01:46:57.504Z,9.04
2023-04-20T01:47:57.561Z,9.01
2023-04-20T01:48:57.580Z,8.97
2023-04-20T01:49:57.695Z,8.99
2023-04-20T01:50:57.702Z,9.02
2023-04-20T01:51:57.756Z,9.06
2023-04-20T01:52:57.808Z,9.06
2023-04-20T01:53:57.813Z,9.10
2023-04-20T01:54:57.915Z,9.09
2023-04-20T01:55:57.930Z,9.01
2023-04-20T01:56:58.968Z,8.85
2023-04-20T01:57:58.006Z,8.75
2023-04-20T01:58:57.981Z,8.75
2023-04-20T01:59:58.026Z,8.73
2023-04-20T02:00:58.109Z,8.95
2023-04-20T02:01:58.135Z,9.19
2023-04-20T02:02:58.194Z,9.36
2023-04-20T02:03:58.361Z,9.43
2023-04-20T02:04:58.241Z,9.50
2023-04-20T02:05:58.261Z,9.34
2023-04-20T02:06:58.313Z,9.25
2023-04-20T02:07:58.383Z,9.29
2023-04-20T02:08:58.438Z,9.48
2023-04-20T02:09:58.525Z,9.56
2023-04-20T02:10:58.528Z,9.65
2023-04-20T02:11:58.557Z,9.55
2023-04-20T02:12:58.652Z,9.73
2023-04-20T02:13:58.680Z,9.91
2023-04-20T02:14:58.762Z,10.01
2023-04-20T02:15:58.859Z,10.02
2023-04-20T02:16:58.907Z,10.02
2023-04-20T02:17:59.040Z,10.15
2023-04-20T02:18:58.954Z,9.99
2023-04-20T02:19:58.996Z,9.93
2023-04-20T02:20:59.035Z,9.87
2023-04-20T02:21:59.086Z,9.99
2023-04-20T02:22:59.136Z,9.90
2023-04-20T02:23:59.194Z,9.72
2023-04-20T02:24:59.255Z,9.82
2023-04-20T02:25:59.271Z,9.98
2023-04-20T02:26:59.335Z,10.12
2023-04-20T02:27:59.357Z,10.15
2023-04-20T02:28:59.399Z,10.18
2023-04-20T02:29:59.450Z,10.24
2023-04-20T02:31:10.598Z,10.09
2023-04-20T02:31:59.907Z,10.18
2023-04-20T02:32:59.584Z,10.25
2023-04-20T02:33:59.489Z,10.32
2023-04-20T02:34:59.485Z,10.37
2023-04-20T02:35:59.496Z,10.21
2023-04-20T02:36:59.519Z,10.02
2023-04-20T02:37:59.446Z,10.03
2023-04-20T02:38:59.486Z,10.14
2023-04-20T02:39:59.512Z,10.03
2023-04-20T02:40:59.478Z,9.99
2023-04-20T02:41:59.569Z,9.77
2023-04-20T02:42:59.677Z,9.86
2023-04-20T02:43:59.628Z,10.02
2023-04-20T02:44:59.653Z,10.16
2023-04-20T02:45:59.766Z,10.21
2023-04-20T02:46:59.833Z,10.12
2023-04-20T02:47:59.890Z,10.04
2023-04-20T02:48:59.857Z,9.92
2023-04-20T02:49:59.911Z,9.68
2023-04-20T02:50:59.874Z,9.46
2023-04-20T02:51:59.912Z,9.19
2023-04-20T02:52:59.907Z,9.21
2023-04-20T02:53:59.917Z,9.23
2023-04-20T02:54:59.945Z,9.36
2023-04-20T02:55:59.985Z,9.62
2023-04-20T02:57:00.024Z,9.83
2023-04-20T02:58:00.080Z,9.93
2023-04-20T02:59:00.116Z,9.98
2023-04-20T03:00:00.113Z,10.04
2023-04-20T03:01:00.140Z,10.12
2023-04-20T03:02:00.254Z,10.25
2023-04-20T03:03:00.287Z,10.19
2023-04-20T03:04:00.421Z,10.01
2023-04-20T03:05:00.270Z,10.05
2023-04-20T03:06:00.319Z,10.10
2023-04-20T03:07:00.399Z,10.04
2023-04-20T03:08:00.450Z,10.12
2023-04-20T03:09:00.510Z,9.94
2023-04-20T03:10:00.556Z,9.93
2023-04-20T03:11:00.506Z,10.06
2023-04-20T03:12:00.615Z,10.12
2023-04-20T03:13:00.694Z,10.22
2023-04-20T03:14:00.689Z,10.11
2023-04-20T03:15:00.749Z,10.18
2023-04-20T03:16:00.768Z,10.23
2023-04-20T03:17:00.748Z,10.28
2023-04-20T03:18:00.858Z,10.27
2023-04-20T03:19:00.870Z,10.24
2023-04-20T03:20:00.939Z,10.20
2023-04-20T03:21:00.977Z,10.17
2023-04-20T03:22:01.023Z,10.17
2023-04-20T03:23:01.001Z,10.15
2023-04-20T03:24:01.035Z,10.11
2023-04-20T03:25:01.009Z,10.03
2023-04-20T03:26:01.032Z,10.07
2023-04-20T03:27:01.044Z,10.08
2023-04-20T03:28:01.014Z,10.02
2023-04-20T03:29:01.066Z,9.98
2023-04-20T03:30:01.129Z,10.15
2023-04-20T03:31:01.141Z,10.24
2023-04-20T03:32:01.188Z,10.36
2023-04-20T03:33:01.249Z,10.42
2023-04-20T03:34:01.188Z,10.56
2023-04-20T03:35:01.216Z,10.56
2023-04-20T03:36:01.213Z,10.54
2023-04-20T03:37:01.238Z,10.54
2023-04-20T03:38:01.351Z,10.56
2023-04-20T03:39:01.322Z,10.35
2023-04-20T03:40:01.324Z,10.29
2023-04-20T03:41:01.323Z,10.26
2023-04-20T03:42:01.409Z,10.32
2023-04-20T03:43:01.437Z,10.42
2023-04-20T03:44:01.458Z,10.39
2023-04-20T03:45:01.514Z,10.32
2023-04-20T03:46:01.587Z,10.15
2023-04-20T03:47:01.577Z,10.26
2023-04-20T03:48:01.542Z,10.19
2023-04-20T03:49:01.525Z,10.11
2023-04-20T03:50:01.532Z,10.09
2023-04-20T03:51:01.603Z,9.84
2023-04-20T03:52:01.652Z,9.90
2023-04-20T03:53:01.714Z,10.01
2023-04-20T03:54:01.753Z,10.01
2023-04-20T03:55:01.830Z,10.10
2023-04-20T03:56:01.774Z,10.26
2023-04-20T03:57:01.856Z,10.32
2023-04-20T03:58:01.919Z,10.33
2023-04-20T03:59:01.964Z,10.36
2023-04-20T04:00:02.035Z,10.33
2023-04-20T04:01:01.962Z,10.35
2023-04-20T04:02:02.083Z,10.35
2023-04-20T04:03:02.096Z,10.41
2023-04-20T04:04:02.190Z,10.45
2023-04-20T04:05:02.805Z,10.47
2023-04-20T04:06:02.119Z,10.42
2023-04-20T04:07:02.129Z,10.45
2023-04-20T04:08:02.138Z,9.99
2023-04-20T04:09:02.136Z,9.97
2023-04-20T04:10:02.143Z,10.15
2023-04-20T04:11:02.263Z,10.17
2023-04-20T04:12:02.323Z,10.19
2023-04-20T04:13:02.347Z,10.18
2023-04-20T04:14:02.390Z,9.96
2023-04-20T04:15:02.433Z,9.75
2023-04-20T04:16:02.513Z,9.62
2023-04-20T04:17:02.555Z,9.82
2023-04-20T04:18:02.612Z,9.84
2023-04-20T04:19:02.566Z,9.77
2023-04-20T04:20:02.621Z,9.58
2023-04-20T04:21:02.621Z,9.47
2023-04-20T04:22:02.647Z,9.19
2023-04-20T04:23:02.635Z,9.23
2023-04-20T04:24:02.710Z,9.43
2023-04-20T04:25:02.705Z,9.55
2023-04-20T04:26:02.828Z,9.55
2023-04-20T04:27:02.785Z,9.58
2023-04-20T04:28:02.808Z,9.43
2023-04-20T04:29:02.930Z,9.28
2023-04-20T04:30:02.844Z,9.23
2023-04-20T04:31:02.834Z,9.07
2023-04-20T04:32:02.834Z,9.11
2023-04-20T04:33:02.945Z,9.31
2023-04-20T04:34:02.866Z,9.41
2023-04-20T04:35:02.896Z,9.36
2023-04-20T04:36:03.043Z,9.43
2023-04-20T04:37:02.968Z,9.54
2023-04-20T04:38:03.008Z,9.61
2023-04-20T04:39:03.056Z,9.51
2023-04-20T04:40:04.375Z,9.57
2023-04-20T04:41:02.972Z,9.36
2023-04-20T04:42:04.741Z,9.20
2023-04-20T04:43:03.042Z,9.30
2023-04-20T04:44:03.040Z,9.19
2023-04-20T04:45:03.058Z,9.19
2023-04-20T04:46:03.070Z,9.11
2023-04-20T04:47:03.106Z,9.00
2023-04-20T04:48:03.144Z,9.17
2023-04-20T04:49:03.129Z,9.27
2023-04-20T04:50:03.137Z,9.28
2023-04-20T04:51:03.147Z,9.28
2023-04-20T04:52:03.161Z,9.51
2023-04-20T04:53:03.146Z,9.69
2023-04-20T04:54:03.254Z,9.43
2023-04-20T04:55:03.260Z,9.52
2023-04-20T04:56:03.292Z,9.51
2023-04-20T04:57:03.364Z,9.64
2023-04-20T04:58:03.349Z,9.73
2023-04-20T04:59:03.381Z,9.85
2023-04-20T05:00:04.374Z,9.85
2023-04-20T05:02:31.794Z,9.71
2023-04-20T05:03:23.788Z,9.73
2023-04-20T05:04:23.820Z,9.76
2023-04-20T05:05:23.630Z,9.72
2023-04-20T05:06:23.711Z,9.65
2023-04-20T05:07:23.715Z,9.75
2023-04-20T05:08:23.694Z,9.78
2023-04-20T05:09:23.565Z,9.70
2023-04-20T05:10:23.665Z,9.60
2023-04-20T05:11:24.196Z,9.64
2023-04-20T05:12:23.808Z,9.68
2023-04-20T05:13:24.814Z,9.71
2023-04-20T05:14:23.810Z,9.84
2023-04-20T05:15:23.766Z,9.96
2023-04-20T05:16:23.807Z,10.11
2023-04-20T05:17:23.930Z,10.27
2023-04-20T05:18:23.742Z,10.34
2023-04-20T05:19:23.728Z,10.34
2023-04-20T05:20:23.716Z,10.18
2023-04-20T05:21:23.746Z,10.19
2023-04-20T05:22:23.770Z,10.18
2023-04-20T05:23:23.669Z,10.08
2023-04-20T05:24:23.671Z,9.67
2023-04-20T05:25:25.228Z,9.57
2023-04-20T05:26:23.789Z,9.61
2023-04-20T05:27:24.724Z,9.69
2023-04-20T05:28:23.701Z,9.88
2023-04-20T05:29:23.798Z,10.09
2023-04-20T05:30:23.691Z,10.24
2023-04-20T05:31:23.717Z,10.30
2023-04-20T05:32:23.836Z,10.40
2023-04-20T05:33:24.222Z,10.47
2023-04-20T05:34:23.692Z,10.44
2023-04-20T05:35:23.710Z,10.55
2023-04-20T05:36:23.708Z,10.53
2023-04-20T05:37:24.448Z,10.54
2023-04-20T05:38:23.564Z,10.43
2023-04-20T05:39:23.685Z,10.41
2023-04-20T05:40:23.643Z,10.33
2023-04-20T05:41:23.595Z,10.46
2023-04-20T05:42:23.962Z,10.58
2023-04-20T05:43:23.587Z,10.26
2023-04-20T05:44:24.194Z,9.90
2023-04-20T05:45:23.689Z,9.82
2023-04-20T05:47:43.366Z,9.77
2023-04-20T05:48:43.596Z,9.67
2023-04-20T05:49:43.229Z,9.73
2023-04-20T05:50:43.136Z,9.73
2023-04-20T05:51:43.132Z,9.82
2023-04-20T05:52:43.169Z,9.99
2023-04-20T05:53:43.123Z,10.20
2023-04-20T05:54:43.154Z,10.33
2023-04-20T05:55:43.135Z,10.15
2023-04-20T05:56:43.085Z,9.98
2023-04-20T05:57:43.138Z,10.10
2023-04-20T05:58:43.107Z,10.16
2023-04-20T05:59:43.077Z,10.06
2023-04-20T06:00:43.069Z,10.00
2023-04-20T06:01:43.129Z,10.15
2023-04-20T06:02:43.245Z,10.36
2023-04-20T06:03:43.273Z,10.45
2023-04-20T06:04:43.347Z,10.53
2023-04-20T06:05:43.146Z,10.45
2023-04-20T06:06:43.012Z,10.54
2023-04-20T06:07:43.031Z,10.69
2023-04-20T06:08:43.055Z,10.81
2023-04-20T06:09:43.051Z,10.85
2023-04-20T06:10:43.077Z,10.81
2023-04-20T06:11:43.052Z,10.88
2023-04-20T06:12:43.157Z,10.67
2023-04-20T06:13:43.104Z,10.49
2023-04-20T06:14:43.027Z,10.40
2023-04-20T06:15:44.173Z,10.63
2023-04-20T06:16:42.907Z,10.80
2023-04-20T06:17:43.008Z,10.85
2023-04-20T06:18:42.935Z,11.00
2023-04-20T06:19:42.996Z,11.04
2023-04-20T06:20:42.969Z,11.07
2023-04-20T06:21:42.989Z,11.21
2023-04-20T06:22:43.265Z,11.18
2023-04-20T06:23:43.050Z,11.14
2023-04-20T06:24:42.999Z,10.58
2023-04-20T06:25:42.983Z,10.36
2023-04-20T06:26:43.046Z,10.18
2023-04-20T06:27:43.444Z,10.05
2023-04-20T06:28:43.840Z,10.13
2023-04-20T06:29:43.213Z,10.42
2023-04-20T06:30:43.108Z,10.60
2023-04-20T06:31:43.126Z,10.78
2023-04-20T06:32:43.284Z,10.95
2023-04-20T06:33:43.437Z,11.05
2023-04-20T06:34:43.228Z,11.07
2023-04-20T06:35:43.241Z,11.16
2023-04-20T06:36:43.260Z,10.97
2023-04-20T06:37:43.781Z,11.04
2023-04-20T06:38:43.356Z,11.08
2023-04-20T06:39:43.426Z,10.83
2023-04-20T06:40:43.473Z,10.65
2023-04-20T06:41:43.483Z,10.44
2023-04-20T06:42:43.789Z,10.18
2023-04-20T06:43:43.507Z,10.04
2023-04-20T06:44:43.617Z,9.83
2023-04-20T06:45:43.600Z,9.83
2023-04-20T06:46:43.760Z,9.87
2023-04-20T06:47:44.317Z,10.02
2023-04-20T06:48:43.736Z,9.89
2023-04-20T06:49:43.783Z,9.70
2023-04-20T06:50:43.848Z,9.58
2023-04-20T06:51:43.881Z,9.49
2023-04-20T06:52:43.970Z,9.54
2023-04-20T06:53:44.039Z,9.48
2023-04-20T06:54:44.066Z,9.41
2023-04-20T06:55:44.108Z,9.42
2023-04-20T06:56:44.102Z,9.60
2023-04-20T06:57:44.196Z,9.61
2023-04-20T06:58:44.250Z,9.75
2023-04-20T06:59:44.205Z,9.94
2023-04-20T07:00:44.290Z,9.98
2023-04-20T07:01:44.322Z,9.82
2023-04-20T07:02:44.407Z,9.90
2023-04-20T07:03:44.586Z,10.22
2023-04-20T07:04:44.343Z,10.04
2023-04-20T07:05:44.373Z,9.97
2023-04-20T07:06:44.465Z,10.03
2023-04-20T07:07:44.539Z,9.97
2023-04-20T07:08:44.603Z,9.73
2023-04-20T07:09:44.613Z,9.75
2023-04-20T07:10:44.594Z,9.92
2023-04-20T07:11:44.676Z,9.88
2023-04-20T07:12:44.734Z,9.89
2023-04-20T07:13:44.738Z,10.13
2023-04-20T07:14:44.747Z,10.35
2023-04-20T07:15:44.764Z,10.33
2023-04-20T07:16:44.804Z,10.19
2023-04-20T07:17:44.784Z,10.33
2023-04-20T07:18:44.762Z,10.46
2023-04-20T07:19:44.823Z,10.57
2023-04-20T07:20:44.929Z,10.71
2023-04-20T07:21:44.886Z,10.83
2023-04-20T07:22:45.003Z,11.04
2023-04-20T07:23:45.374Z,11.12
2023-04-20T07:24:45.067Z,11.25
2023-04-20T07:25:45.122Z,11.42
2023-04-20T07:26:45.126Z,11.62
2023-04-20T07:27:45.239Z,11.58
2023-04-20T07:28:45.290Z,11.71
2023-04-20T07:29:45.369Z,11.65
2023-04-20T07:30:45.535Z,11.55
2023-04-20T07:31:45.484Z,11.70
2023-04-20T07:32:45.767Z,11.77
2023-04-20T07:33:45.823Z,11.85
2023-04-20T07:34:45.493Z,11.83
2023-04-20T07:35:45.549Z,11.92
2023-04-20T07:36:45.561Z,11.65
2023-04-20T07:37:45.651Z,11.58
2023-04-20T07:38:45.751Z,11.63
2023-04-20T07:39:45.733Z,11.77
2023-04-20T07:40:45.721Z,11.79
2023-04-20T07:41:45.705Z,11.91
2023-04-20T07:42:45.811Z,12.05
2023-04-20T07:43:45.802Z,12.09
2023-04-20T07:44:45.822Z,12.20
2023-04-20T07:45:45.909Z,12.00
2023-04-20T07:46:45.920Z,11.73
2023-04-20T07:47:46.388Z,11.65
2023-04-20T07:48:46.057Z,11.93
2023-04-20T07:49:46.032Z,12.17
2023-04-20T07:50:46.078Z,11.97
2023-04-20T07:51:46.166Z,12.09
2023-04-20T07:52:46.186Z,12.14
2023-04-20T07:53:46.186Z,12.12
2023-04-20T07:54:46.234Z,12.22
2023-04-20T07:55:46.253Z,12.14
2023-04-20T07:56:46.269Z,11.73
2023-04-20T07:57:46.306Z,11.42
2023-04-20T07:58:46.343Z,11.40
2023-04-20T07:59:46.369Z,11.39
2023-04-20T08:00:46.385Z,11.58
2023-04-20T08:01:46.862Z,11.93
2023-04-20T08:02:46.658Z,12.05
2023-04-20T08:03:46.945Z,12.14
2023-04-20T08:04:46.738Z,12.41
2023-04-20T08:05:46.719Z,12.57
2023-04-20T08:06:46.628Z,12.40
2023-04-20T08:07:46.682Z,12.39
2023-04-20T08:08:46.696Z,12.28
2023-04-20T08:09:54.384Z,12.44
2023-04-20T08:10:46.841Z,12.67
2023-04-20T08:11:46.668Z,12.82
2023-04-20T08:12:46.735Z,12.93
2023-04-20T08:13:46.834Z,12.79
2023-04-20T08:14:46.656Z,12.61
2023-04-20T08:15:46.696Z,12.78
2023-04-20T08:16:46.643Z,12.97
2023-04-20T08:17:46.817Z,13.28
2023-04-20T08:18:47.951Z,13.53
2023-04-20T08:19:46.670Z,13.42
2023-04-20T08:20:46.662Z,13.12
2023-04-20T08:21:46.635Z,12.62
2023-04-20T08:22:46.658Z,12.40
2023-04-20T08:23:46.820Z,12.33
2023-04-20T08:24:46.664Z,12.67
2023-04-20T08:25:46.590Z,12.98
2023-04-20T08:26:46.618Z,13.17
2023-04-20T08:27:46.666Z,13.28
2023-04-20T08:28:46.962Z,13.53
2023-04-20T08:29:46.761Z,13.65
2023-04-20T08:30:46.857Z,13.53
2023-04-20T08:31:47.603Z,13.53
2023-04-20T08:32:46.974Z,13.65
2023-04-20T08:33:47.835Z,13.48
2023-04-20T08:34:47.312Z,13.60
2023-04-20T08:35:46.897Z,13.71
2023-04-20T08:36:46.871Z,13.73
2023-04-20T08:37:46.958Z,13.63
2023-04-20T08:38:47.076Z,13.86
2023-04-20T08:39:47.014Z,13.99
2023-04-20T08:40:47.115Z,14.12
2023-04-20T08:41:47.218Z,14.04
2023-04-20T08:42:47.099Z,14.17
2023-04-20T08:43:47.200Z,14.30
2023-04-20T08:44:47.178Z,14.45
2023-04-20T08:45:47.152Z,14.51
2023-04-20T08:46:47.248Z,14.65
2023-04-20T08:47:47.420Z,14.74
2023-04-20T08:48:47.925Z,14.89
2023-04-20T08:49:47.380Z,14.97
2023-04-20T08:50:47.394Z,14.98
2023-04-20T08:51:47.423Z,15.02
2023-04-20T08:52:47.480Z,15.09
2023-04-20T08:53:47.859Z,14.79
2023-04-20T08:54:55.803Z,14.69
2023-04-20T08:55:50.278Z,14.76
2023-04-20T08:56:47.552Z,14.68
2023-04-20T08:57:47.463Z,14.65
2023-04-20T08:58:47.794Z,14.75
2023-04-20T08:59:47.487Z,14.70
2023-04-20T09:00:47.536Z,14.76
2023-04-20T09:01:47.520Z,14.74
2023-04-20T09:02:47.594Z,14.88
2023-04-20T09:03:47.570Z,15.00
2023-04-20T09:04:47.908Z,15.10
2023-04-20T09:05:47.482Z,15.14
2023-04-20T09:06:47.458Z,15.37
2023-04-20T09:07:47.822Z,15.48
2023-04-20T09:08:47.437Z,15.63
2023-04-20T09:09:47.470Z,15.65
2023-04-20T09:10:47.452Z,15.89
2023-04-20T09:11:47.527Z,15.79
2023-04-20T09:12:47.456Z,15.82
2023-04-20T09:13:47.443Z,15.90
2023-04-20T09:14:47.383Z,15.41
2023-04-20T09:15:47.424Z,15.53
2023-04-20T09:16:55.282Z,15.33
2023-04-20T09:17:47.446Z,15.14
2023-04-20T09:18:47.359Z,15.40
2023-04-20T09:19:47.395Z,15.55
2023-04-20T09:20:47.407Z,15.73
2023-04-20T09:21:47.357Z,15.74
2023-04-20T09:22:47.386Z,15.71
2023-04-20T09:23:47.348Z,15.78
2023-04-20T09:24:47.899Z,15.83
2023-04-20T09:25:47.314Z,15.92
2023-04-20T09:26:47.324Z,15.95
2023-04-20T09:27:47.306Z,16.03
2023-04-20T09:28:47.361Z,16.22
2023-04-20T09:29:47.348Z,16.12
2023-04-20T09:30:47.406Z,16.20
2023-04-20T09:31:47.494Z,15.91
2023-04-20T09:32:47.623Z,16.14
2023-04-20T09:33:47.502Z,16.22
2023-04-20T09:34:47.612Z,15.99
2023-04-20T09:35:47.615Z,15.31
2023-04-20T09:36:47.718Z,14.88
2023-04-20T09:37:47.809Z,15.16
2023-04-20T09:38:47.852Z,15.22
2023-04-20T09:39:47.948Z,15.09
2023-04-20T09:40:47.859Z,15.24
2023-04-20T09:41:47.865Z,15.00
2023-04-20T09:42:47.876Z,14.77
2023-04-20T09:43:47.987Z,14.72
2023-04-20T09:44:48.306Z,14.43
2023-04-20T09:45:48.023Z,14.44
2023-04-20T09:46:48.011Z,14.62
2023-04-20T09:47:48.149Z,14.82
2023-04-20T09:48:48.104Z,15.08
2023-04-20T09:49:48.122Z,15.11
2023-04-20T09:50:49.793Z,15.06
2023-04-20T09:51:48.081Z,14.85
2023-04-20T09:52:48.108Z,14.84
2023-04-20T09:53:48.111Z,14.47
2023-04-20T09:54:48.156Z,14.65
2023-04-20T09:55:48.047Z,14.85
2023-04-20T09:56:48.102Z,15.28
2023-04-20T09:57:48.080Z,15.63
2023-04-20T09:58:48.123Z,15.86
2023-04-20T09:59:48.395Z,15.73
2023-04-20T10:00:48.161Z,15.61
2023-04-20T10:01:48.102Z,15.16
2023-04-20T10:02:48.217Z,15.28
2023-04-20T10:03:48.181Z,15.59
2023-04-20T10:04:48.068Z,15.73
2023-04-20T10:05:47.987Z,15.76
2023-04-20T10:06:47.969Z,15.82
2023-04-20T10:07:55.612Z,15.43
2023-04-20T10:08:48.041Z,15.32
2023-04-20T10:09:48.412Z,14.97
2023-04-20T10:10:47.941Z,14.77
2023-04-20T10:11:53.339Z,14.56
2023-04-20T10:12:48.932Z,14.86
2023-04-20T10:13:47.952Z,15.38
2023-04-20T10:14:48.119Z,15.70
2023-04-20T10:15:48.335Z,15.89
2023-04-20T10:16:48.069Z,15.90
2023-04-20T10:17:47.943Z,16.02
2023-04-20T10:18:47.991Z,16.11
2023-04-20T10:19:48.375Z,16.08
2023-04-20T10:20:47.947Z,16.00
2023-04-20T10:21:47.894Z,15.91
2023-04-20T10:22:47.884Z,16.23
2023-04-20T10:23:47.843Z,16.48
2023-04-20T10:24:47.892Z,16.59
2023-04-20T10:25:48.705Z,16.71
2023-04-20T10:26:47.988Z,16.79
2023-04-20T10:27:47.919Z,16.71
2023-04-20T10:28:47.926Z,16.52
2023-04-20T10:29:48.695Z,15.98
2023-04-20T10:30:48.389Z,15.75
2023-04-20T10:31:48.937Z,15.89
2023-04-20T10:32:47.973Z,16.09
2023-04-20T10:33:47.960Z,16.08
2023-04-20T10:34:47.970Z,16.08
2023-04-20T10:35:48.346Z,15.51
2023-04-20T10:36:48.166Z,14.97
2023-04-20T10:37:48.181Z,15.00
2023-04-20T10:38:49.842Z,15.21
2023-04-20T10:39:48.255Z,15.53
2023-04-20T10:40:48.367Z,15.96
2023-04-20T10:41:48.276Z,15.97
2023-04-20T10:42:48.326Z,15.94
2023-04-20T10:43:48.297Z,15.86
2023-04-20T10:44:48.350Z,15.49
2023-04-20T10:45:48.812Z,15.47
2023-04-20T10:46:48.560Z,15.51
2023-04-20T10:47:48.482Z,15.69
2023-04-20T10:48:48.506Z,15.96
2023-04-20T10:49:50.066Z,16.04
2023-04-20T10:50:48.659Z,16.34
2023-04-20T10:51:48.479Z,16.33
2023-04-20T10:52:48.593Z,16.34
2023-04-20T10:53:48.654Z,16.22
2023-04-20T10:54:49.405Z,16.22
2023-04-20T10:55:49.183Z,16.37
2023-04-20T10:56:48.683Z,15.78
2023-04-20T10:57:48.703Z,15.69
2023-04-20T10:58:48.707Z,15.73
2023-04-20T10:59:48.831Z,16.04
2023-04-20T11:00:48.814Z,16.08
2023-04-20T11:01:48.827Z,16.21
2023-04-20T11:02:49.915Z,16.32
2023-04-20T11:03:48.924Z,15.86
2023-04-20T11:04:49.007Z,15.47
2023-04-20T11:05:48.933Z,15.29
2023-04-20T11:06:48.964Z,15.20
2023-04-20T11:07:48.910Z,15.14
2023-04-20T11:08:49.017Z,15.41
2023-04-20T11:09:49.038Z,15.70
2023-04-20T11:10:49.342Z,15.62
2023-04-20T11:11:49.032Z,15.56
2023-04-20T11:12:49.028Z,15.56
2023-04-20T11:13:49.153Z,15.83
2023-04-20T11:14:49.235Z,16.06
2023-04-20T11:15:49.566Z,16.28
2023-04-20T11:16:51.567Z,16.47
2023-04-20T11:17:49.295Z,16.50
2023-04-20T11:18:49.157Z,15.98
2023-04-20T11:19:49.693Z,15.79
2023-04-20T11:20:49.281Z,15.78
2023-04-20T11:21:49.217Z,15.73
2023-04-20T11:22:49.195Z,15.72
2023-04-20T11:23:49.192Z,15.75
2023-04-20T11:24:49.108Z,16.08
2023-04-20T11:25:49.129Z,16.43
2023-04-20T11:26:49.222Z,16.59
2023-04-20T11:27:49.227Z,16.80
2023-04-20T11:28:49.227Z,16.91
2023-04-20T11:29:49.548Z,17.04
2023-04-20T11:30:49.642Z,17.12
2023-04-20T11:31:49.251Z,17.01
2023-04-20T11:32:49.507Z,17.09
2023-04-20T11:33:49.253Z,17.13
2023-04-20T11:34:53.138Z,17.14
2023-04-20T11:35:50.814Z,17.03
2023-04-20T11:36:49.196Z,17.04
2023-04-20T11:37:49.202Z,17.26
2023-04-20T11:38:49.178Z,17.43
2023-04-20T11:39:49.099Z,17.43
2023-04-20T11:40:49.114Z,17.56
2023-04-20T11:41:49.494Z,17.67
2023-04-20T11:42:49.119Z,17.69
2023-04-20T11:43:50.206Z,17.69
2023-04-20T11:44:49.093Z,17.78
2023-04-20T11:45:49.171Z,17.97
2023-04-20T11:46:49.544Z,17.99
2023-04-20T11:47:49.145Z,18.08
2023-04-20T11:48:49.203Z,18.08
2023-04-20T11:49:49.188Z,18.11
2023-04-20T11:50:49.284Z,18.15
2023-04-20T11:51:49.346Z,18.21
2023-04-20T11:52:49.284Z,18.22
2023-04-20T11:53:49.311Z,18.24
2023-04-20T11:54:49.406Z,18.32
2023-04-20T11:55:49.529Z,18.39
2023-04-20T11:56:49.522Z,18.26
2023-04-20T11:57:49.574Z,18.29
2023-04-20T11:58:49.573Z,18.22
2023-04-20T11:59:49.652Z,18.14
2023-04-20T12:00:49.576Z,18.22
2023-04-20T12:01:49.587Z,18.21
2023-04-20T12:02:49.622Z,18.24
2023-04-20T12:03:49.851Z,18.24
2023-04-20T12:04:49.869Z,18.25
2023-04-20T12:05:49.546Z,18.06
2023-04-20T12:06:49.771Z,17.95
2023-04-20T12:07:49.546Z,18.03
2023-04-20T12:08:49.516Z,17.87
2023-04-20T12:09:49.517Z,17.45
2023-04-20T12:10:49.503Z,17.25
2023-04-20T12:11:49.453Z,16.85
2023-04-20T12:12:49.490Z,16.95
2023-04-20T12:13:49.522Z,16.80
2023-04-20T12:14:49.540Z,16.57
2023-04-20T12:15:49.601Z,16.49
2023-04-20T12:16:49.674Z,16.48
2023-04-20T12:17:49.710Z,16.79
2023-04-20T12:18:49.814Z,17.05
2023-04-20T12:19:49.823Z,17.11
2023-04-20T12:20:49.674Z,17.38
2023-04-20T12:21:49.892Z,17.71
2023-04-20T12:22:49.884Z,17.83
2023-04-20T12:23:49.754Z,17.63
2023-04-20T12:24:49.869Z,17.60
2023-04-20T12:25:49.958Z,17.84
2023-04-20T12:26:49.792Z,18.00
2023-04-20T12:27:50.132Z,18.12
2023-04-20T12:28:49.791Z,18.33
2023-04-20T12:29:49.921Z,18.46
2023-04-20T12:30:49.827Z,18.53
2023-04-20T12:31:50.031Z,18.50
2023-04-20T12:32:49.814Z,18.58
2023-04-20T12:33:49.846Z,18.77
2023-04-20T12:34:49.794Z,18.67
2023-04-20T12:35:49.735Z,18.50
2023-04-20T12:36:49.761Z,18.58
2023-04-20T12:37:49.799Z,18.37
2023-04-20T12:38:49.701Z,18.40
2023-04-20T12:39:49.748Z,18.53
2023-04-20T12:40:49.800Z,18.62
2023-04-20T12:41:49.887Z,18.65
2023-04-20T12:42:49.989Z,18.71
2023-04-20T12:43:49.893Z,18.84
2023-04-20T12:44:49.903Z,18.92
2023-04-20T12:45:49.969Z,18.69
2023-04-20T12:46:50.129Z,18.37
2023-04-20T12:47:50.233Z,18.40
2023-04-20T12:48:50.117Z,18.32
2023-04-20T12:49:50.196Z,18.23
2023-04-20T12:50:50.092Z,18.24
2023-04-20T12:51:50.203Z,18.20
2023-04-20T12:52:50.199Z,18.33
2023-04-20T12:53:50.159Z,17.91
2023-04-20T12:54:50.244Z,17.94
2023-04-20T12:55:55.213Z,17.95
2023-04-20T12:56:51.352Z,18.18
2023-04-20T12:57:50.302Z,18.38
2023-04-20T12:58:50.285Z,18.24
2023-04-20T12:59:50.269Z,18.17
2023-04-20T13:00:50.330Z,18.22
2023-04-20T13:01:50.552Z,18.30
2023-04-20T13:02:50.468Z,18.39